Time;durP1;ratioP1;P1;durP2;ratioP2;P2;SDS_P1;SDS_P2;PMS_P1;PMS_P2;Temp;Humidity;BMP_temperature;BMP_pressure;BME280_temperature;BME280_humidity;BME280_pressure;Samples;Min_cycle;Max_cycle;Signal;HPM_P1;HPM_P2
2023/05/26 00:00:10;;;;;;;63.05;59.03;;;;;;;19.77;41.44;102778.72;5008081;28;20034;-77
2023/05/26 00:02:36;;;;;;;60.38;56.83;;;;;;;19.73;41.43;102782.22;4994693;28;20026;-76
2023/05/26 00:05:09;;;;;;;59.28;55.80;;;;;;;19.70;41.44;102775.34;5020544;28;20084;-81
2023/05/26 00:07:39;;;;;;;60.22;55.65;;;;;;;19.67;41.66;102782.16;5022181;28;20049;-77
2023/05/26 00:10:06;;;;;;;63.50;59.65;;;;;;;19.64;41.52;102779.91;5008542;28;20061;-76
2023/05/26 00:12:32;;;;;;;60.58;57.00;;;;;;;19.62;41.65;102786.72;5018284;28;20125;-76
2023/05/26 00:14:57;;;;;;;60.97;57.88;;;;;;;19.60;41.98;102780.66;5025508;28;20438;-76
2023/05/26 00:17:24;;;;;;;58.38;55.42;;;;;;;19.57;41.39;102786.66;4994000;28;20106;-77
2023/05/26 00:19:52;;;;;;;62.10;58.40;;;;;;;19.53;41.49;102789.09;5007486;28;20099;-76
2023/05/26 00:22:18;;;;;;;60.15;56.60;;;;;;;19.50;41.52;102791.50;4998802;28;20030;-76
2023/05/26 00:24:45;;;;;;;56.80;54.03;;;;;;;19.48;41.83;102789.03;5003778;28;20038;-76
2023/05/26 00:27:10;;;;;;;59.42;55.50;;;;;;;19.45;41.79;102803.19;5018526;28;20029;-75
2023/05/26 00:29:37;;;;;;;59.33;55.83;;;;;;;19.42;41.75;102796.31;4987405;28;20683;-76
2023/05/26 00:32:03;;;;;;;58.30;54.70;;;;;;;19.39;41.61;102799.56;5011731;28;20030;-76
2023/05/26 00:34:28;;;;;;;58.50;55.10;;;;;;;19.37;41.65;102793.50;4986641;28;20034;-76
2023/05/26 00:36:54;;;;;;;57.35;54.38;;;;;;;19.34;41.64;102798.66;5015572;28;20031;-77
2023/05/26 00:39:19;;;;;;;60.30;56.97;;;;;;;19.32;41.46;102801.66;4976660;28;20120;-74
2023/05/26 00:41:45;;;;;;;60.13;56.33;;;;;;;19.28;41.81;102792.28;4994348;28;20081;-75
2023/05/26 00:44:10;;;;;;;58.25;54.90;;;;;;;19.25;41.51;102795.50;5007815;28;20491;-77
2023/05/26 00:46:36;;;;;;;57.25;53.55;;;;;;;19.22;41.98;102796.84;4995365;28;20423;-75
2023/05/26 00:49:01;;;;;;;56.00;53.13;;;;;;;19.20;41.74;102789.97;5034589;28;20025;-76
2023/05/26 00:51:31;;;;;;;59.03;55.05;;;;;;;19.17;41.74;102793.22;4992663;28;20061;-76
2023/05/26 00:53:56;;;;;;;55.55;52.17;;;;;;;19.14;41.87;102794.53;5011694;28;20034;-76
2023/05/26 00:56:24;;;;;;;58.53;54.80;;;;;;;19.10;42.11;102790.66;4998661;28;20088;-75
2023/05/26 00:58:49;;;;;;;56.20;53.50;;;;;;;19.08;42.19;102795.56;4996023;28;20026;-77
2023/05/26 01:01:16;;;;;;;55.92;53.03;;;;;;;19.04;41.76;102794.38;5020602;28;20032;-76
2023/05/26 01:03:42;;;;;;;57.00;53.42;;;;;;;19.02;41.74;102799.28;5001344;28;20057;-76
2023/05/26 01:06:08;;;;;;;56.88;54.08;;;;;;;18.98;41.66;102793.47;4995045;28;20030;-76
2023/05/26 01:08:33;;;;;;;58.17;54.25;;;;;;;18.97;41.89;102793.72;5011746;28;20033;-76
2023/05/26 01:11:03;;;;;;;55.00;51.65;;;;;;;18.94;41.95;102799.69;5012989;28;20034;-77
2023/05/26 01:13:35;;;;;;;57.40;53.67;;;;;;;18.91;42.10;102803.75;4996117;28;20105;-76
2023/05/26 01:16:08;;;;;;;55.95;52.67;;;;;;;18.89;41.92;102796.88;5013280;28;20030;-76
2023/05/26 01:18:45;;;;;;;57.22;54.17;;;;;;;18.84;42.00;102800.34;5002166;28;20033;-74
2023/05/26 01:21:12;;;;;;;58.90;55.08;;;;;;;18.81;41.95;102801.69;5010371;28;20042;-76
2023/05/26 01:23:58;;;;;;;56.13;52.38;;;;;;;18.78;41.89;102807.66;5011524;28;20625;-75
2023/05/26 01:26:33;;;;;;;57.30;53.67;;;;;;;18.76;42.24;102806.25;5011695;28;20210;-75
2023/05/26 01:29:05;;;;;;;54.58;51.72;;;;;;;18.74;42.30;102802.88;5003468;28;20037;-75
2023/05/26 01:31:33;;;;;;;52.95;50.13;;;;;;;18.70;42.12;102801.75;5002127;28;20039;-76
2023/05/26 01:34:00;;;;;;;53.13;49.97;;;;;;;18.67;42.03;102802.22;4991992;28;20045;-75
2023/05/26 01:36:27;;;;;;;55.03;51.75;;;;;;;18.65;42.36;102810.69;4983453;28;20484;-76
2023/05/26 01:38:53;;;;;;;53.97;50.67;;;;;;;18.63;42.41;102804.63;5021389;28;20030;-76
2023/05/26 01:41:34;;;;;;;54.40;50.92;;;;;;;18.58;42.14;102808.09;5010867;28;20036;-75
2023/05/26 01:44:04;;;;;;;54.35;51.58;;;;;;;18.56;42.42;102806.69;4992828;28;20164;-77
2023/05/26 01:46:38;;;;;;;53.65;49.97;;;;;;;18.53;42.13;102810.75;4995668;28;20110;-76
2023/05/26 01:49:07;;;;;;;53.92;49.72;;;;;;;18.50;41.95;102810.41;5023426;28;20180;-76
2023/05/26 01:51:34;;;;;;;52.90;49.85;;;;;;;18.47;42.31;102811.75;4999182;28;20041;-76
2023/05/26 01:54:01;;;;;;;52.08;48.97;;;;;;;18.46;42.13;102804.59;4995623;28;20027;-76
2023/05/26 01:56:31;;;;;;;53.38;50.08;;;;;;;18.44;42.52;102814.94;5015331;28;20037;-76
2023/05/26 01:58:59;;;;;;;52.60;49.45;;;;;;;18.40;42.28;102805.59;5012037;28;20034;-76
2023/05/26 02:01:26;;;;;;;52.92;50.15;;;;;;;18.37;42.25;102812.38;5011728;28;20098;-75
2023/05/26 02:03:52;;;;;;;53.15;49.78;;;;;;;18.35;42.60;102811.78;4998451;28;20038;-75
2023/05/26 02:06:17;;;;;;;51.85;48.75;;;;;;;18.32;42.15;102806.81;5025778;28;20042;-75
2023/05/26 02:08:43;;;;;;;52.47;49.38;;;;;;;18.29;42.22;102815.47;5008234;28;20034;-75
2023/05/26 02:11:08;;;;;;;52.30;49.33;;;;;;;18.27;42.20;102812.19;5010825;28;20030;-75
2023/05/26 02:13:33;;;;;;;53.83;50.03;;;;;;;18.24;42.40;102815.38;4992046;28;20454;-76
2023/05/26 02:15:59;;;;;;;52.40;48.88;;;;;;;18.21;42.32;102815.88;5031931;28;20458;-76
2023/05/26 02:18:24;;;;;;;53.13;49.80;;;;;;;18.19;42.66;102811.72;4991314;28;20033;-75
2023/05/26 02:20:50;;;;;;;51.72;48.95;;;;;;;18.15;42.62;102820.41;5007174;28;20051;-75
2023/05/26 02:23:15;;;;;;;55.50;51.97;;;;;;;18.13;42.29;102822.56;4976887;28;20038;-77
2023/05/26 02:25:41;;;;;;;56.05;52.30;;;;;;;18.10;42.49;102825.78;5007462;28;20092;-76
2023/05/26 02:28:07;;;;;;;52.63;48.95;;;;;;;18.10;42.61;102830.44;5005579;28;20036;-77
2023/05/26 02:30:32;;;;;;;54.53;50.60;;;;;;;18.06;42.68;102832.81;4995158;28;20108;-77
2023/05/26 02:32:58;;;;;;;51.67;48.92;;;;;;;18.03;42.46;102830.56;5010828;28;20106;-77
2023/05/26 02:35:23;;;;;;;54.63;50.75;;;;;;;18.00;42.67;102830.22;5013424;28;20071;-75
2023/05/26 02:37:48;;;;;;;52.20;49.00;;;;;;;17.98;42.60;102825.00;4991297;28;20038;-77
2023/05/26 02:40:14;;;;;;;52.45;48.95;;;;;;;17.95;42.40;102828.22;4980731;28;20034;-75
2023/05/26 02:42:39;;;;;;;52.08;48.75;;;;;;;17.93;42.73;102827.63;4981790;28;20045;-75
2023/05/26 02:45:05;;;;;;;53.40;49.47;;;;;;;17.89;42.66;102818.22;5001798;28;20462;-76
2023/05/26 02:47:31;;;;;;;51.85;48.25;;;;;;;17.88;42.58;102822.03;5010596;28;20061;-75
2023/05/26 02:49:56;;;;;;;53.53;50.33;;;;;;;17.86;42.66;102816.81;5008474;28;20483;-76
2023/05/26 02:52:22;;;;;;;51.58;48.25;;;;;;;17.84;42.50;102818.13;4995837;28;20038;-76
2023/05/26 02:54:48;;;;;;;48.50;45.95;;;;;;;17.80;42.79;102828.72;4987396;28;20407;-76
2023/05/26 02:57:14;;;;;;;50.70;47.58;;;;;;;17.78;42.67;102822.63;5010528;28;20123;-75
2023/05/26 02:59:39;;;;;;;53.40;50.00;;;;;;;17.76;42.78;102826.66;5012226;28;20470;-76
2023/05/26 03:02:05;;;;;;;51.22;47.92;;;;;;;17.72;42.52;102824.41;5007198;28;20038;-76
2023/05/26 03:04:30;;;;;;;50.63;47.47;;;;;;;17.70;42.67;102823.81;4998824;28;20025;-76
2023/05/26 03:06:56;;;;;;;49.55;46.00;;;;;;;17.68;42.91;102822.41;4983181;28;20088;-77
2023/05/26 03:09:21;;;;;;;47.10;44.55;;;;;;;17.65;42.63;102825.63;5003082;28;20072;-75
2023/05/26 03:11:46;;;;;;;50.17;46.85;;;;;;;17.62;42.60;102826.94;5009758;28;20480;-76
2023/05/26 03:14:12;;;;;;;49.15;45.95;;;;;;;17.60;42.75;102830.97;5005617;28;20034;-76
2023/05/26 03:16:37;;;;;;;49.95;46.78;;;;;;;17.57;42.89;102826.81;5006938;28;20053;-76
2023/05/26 03:19:03;;;;;;;48.88;45.55;;;;;;;17.55;42.65;102836.31;4991062;28;20037;-76
2023/05/26 03:21:31;;;;;;;49.47;46.72;;;;;;;17.51;42.61;102839.53;4993192;28;20046;-75
2023/05/26 03:23:56;;;;;;;50.53;47.58;;;;;;;17.49;42.91;102836.22;5011833;28;20428;-75
2023/05/26 03:26:22;;;;;;;49.15;46.20;;;;;;;17.47;42.80;102843.81;4995386;28;20169;-76
2023/05/26 03:28:47;;;;;;;50.05;46.53;;;;;;;17.46;42.65;102850.34;4998720;28;20030;-76
2023/05/26 03:31:13;;;;;;;50.22;47.15;;;;;;;17.44;43.04;102840.72;5012286;28;20038;-77
2023/05/26 03:33:38;;;;;;;52.17;49.13;;;;;;;17.41;42.57;102843.91;4991548;28;20033;-75
2023/05/26 03:36:05;;;;;;;48.92;46.17;;;;;;;17.38;43.10;102850.69;4991578;28;20040;-75
2023/05/26 03:38:30;;;;;;;49.97;46.45;;;;;;;17.36;42.77;102849.25;4996227;28;20084;-76
2023/05/26 03:40:56;;;;;;;48.72;45.60;;;;;;;17.34;42.93;102860.44;5009191;28;20479;-75
2023/05/26 03:43:21;;;;;;;48.78;46.15;;;;;;;17.30;42.91;102851.88;5010581;28;20053;-75
2023/05/26 03:45:47;;;;;;;48.85;45.60;;;;;;;17.28;42.76;102859.47;5000531;28;20121;-75
2023/05/26 03:48:14;;;;;;;45.67;43.47;;;;;;;17.26;42.90;102860.75;5004895;28;20030;-76
2023/05/26 03:50:41;;;;;;;49.67;46.95;;;;;;;17.23;43.25;102864.81;5014123;28;20485;-75
2023/05/26 03:53:07;;;;;;;47.90;45.17;;;;;;;17.20;43.07;102859.81;4993520;28;20038;-75
2023/05/26 03:55:33;;;;;;;47.88;44.88;;;;;;;17.19;43.03;102865.53;5011120;28;20030;-76
2023/05/26 03:57:59;;;;;;;48.25;45.22;;;;;;;17.16;43.05;102866.84;5016196;28;20342;-76
2023/05/26 04:00:27;;;;;;;48.53;45.60;;;;;;;17.13;42.81;102861.81;5014058;28;20056;-87
2023/05/26 04:02:53;;;;;;;48.85;45.33;;;;;;;17.11;42.86;102854.94;5029092;28;20080;-78
2023/05/26 04:05:18;;;;;;;47.58;45.08;;;;;;;17.10;42.93;102862.28;5017396;28;20053;-76
2023/05/26 04:07:46;;;;;;;48.80;46.03;;;;;;;17.07;42.90;102857.31;5024435;28;20688;-76
2023/05/26 04:10:11;;;;;;;49.25;45.60;;;;;;;17.04;43.15;102860.53;4994918;28;20098;-75
2023/05/26 04:12:37;;;;;;;47.58;44.42;;;;;;;17.02;42.98;102863.47;4995049;28;20046;-77
2023/05/26 04:15:03;;;;;;;47.33;44.28;;;;;;;17.00;43.08;102870.22;5012649;28;20036;-76
2023/05/26 04:17:28;;;;;;;48.35;45.55;;;;;;;16.97;43.30;102867.97;5013511;28;20058;-76
2023/05/26 04:19:54;;;;;;;50.08;46.72;;;;;;;16.95;42.87;102870.09;5008622;28;20061;-76
2023/05/26 04:22:19;;;;;;;47.53;44.78;;;;;;;16.94;43.10;102871.19;4983004;28;20038;-76
2023/05/26 04:24:45;;;;;;;47.47;44.63;;;;;;;16.91;43.14;102874.34;5013297;28;20034;-74
2023/05/26 04:27:10;;;;;;;46.30;43.15;;;;;;;16.89;42.90;102871.88;5001736;28;20030;-75
2023/05/26 04:29:35;;;;;;;51.15;47.30;;;;;;;16.85;42.95;102874.22;5022491;28;20523;-75
2023/05/26 04:32:01;;;;;;;47.92;44.67;;;;;;;16.83;43.38;102872.78;5007521;28;20052;-75
2023/05/26 04:34:26;;;;;;;49.10;45.25;;;;;;;16.82;42.92;102874.69;5014664;28;20041;-76
2023/05/26 04:36:53;;;;;;;48.00;44.22;;;;;;;16.80;42.95;102878.72;5026566;28;20036;-76
2023/05/26 04:39:18;;;;;;;45.72;42.60;;;;;;;16.78;43.38;102875.38;5015402;28;20040;-75
2023/05/26 04:41:46;;;;;;;47.83;44.95;;;;;;;16.75;43.20;102876.66;5021218;28;20037;-76
2023/05/26 04:44:12;;;;;;;47.35;44.47;;;;;;;16.72;43.07;102874.38;4994513;28;20104;-76
2023/05/26 04:46:38;;;;;;;46.35;43.20;;;;;;;16.71;43.24;102870.00;5009311;28;20034;-77
2023/05/26 04:49:09;;;;;;;45.10;42.33;;;;;;;16.68;43.47;102881.38;5012206;28;20030;-75
2023/05/26 04:51:35;;;;;;;46.42;43.17;;;;;;;16.65;42.87;102877.19;5028331;28;20481;-76
2023/05/26 04:54:01;;;;;;;46.15;42.95;;;;;;;16.64;43.55;102877.47;5023827;28;20040;-76
2023/05/26 04:56:26;;;;;;;46.25;43.40;;;;;;;16.62;43.05;102879.56;5003251;28;20022;-76
2023/05/26 04:58:52;;;;;;;47.55;44.13;;;;;;;16.61;42.87;102880.66;5002658;28;20081;-76
2023/05/26 05:01:18;;;;;;;48.10;44.63;;;;;;;16.59;43.15;102890.97;5000800;28;20038;-83
2023/05/26 05:03:44;;;;;;;44.72;41.65;;;;;;;16.56;43.37;102888.69;4992337;28;20034;-75
2023/05/26 05:06:10;;;;;;;43.75;41.20;;;;;;;16.54;43.25;102894.38;5016573;28;20034;-76
2023/05/26 05:08:37;;;;;;;47.13;43.38;;;;;;;16.53;43.36;102895.44;4999156;28;20030;-76
2023/05/26 05:11:03;;;;;;;45.10;41.63;;;;;;;16.51;43.48;102896.75;5004878;28;20458;-77
2023/05/26 05:13:29;;;;;;;44.47;42.25;;;;;;;16.49;43.23;102898.84;5027277;28;20164;-76
2023/05/26 05:15:55;;;;;;;47.40;42.83;;;;;;;16.47;43.18;102890.06;5034413;28;20120;-76
2023/05/26 05:18:20;;;;;;;45.03;41.63;;;;;;;16.46;43.63;102897.44;5020325;28;20041;-75
2023/05/26 05:20:46;;;;;;;47.22;44.03;;;;;;;16.46;43.40;102896.59;5011891;28;20052;-76
2023/05/26 05:23:11;;;;;;;45.33;43.05;;;;;;;16.45;43.24;102893.00;5000976;28;20413;-76
2023/05/26 05:25:37;;;;;;;46.00;42.35;;;;;;;16.43;43.44;102898.72;5008011;28;20033;-76
2023/05/26 05:28:02;;;;;;;45.45;42.65;;;;;;;16.43;43.39;102897.88;5019719;28;20458;-75
2023/05/26 05:30:28;;;;;;;43.10;40.78;;;;;;;16.43;43.17;102906.06;5007210;28;20036;-75
2023/05/26 05:32:53;;;;;;;44.67;41.78;;;;;;;16.40;43.21;102904.63;5009744;28;20108;-75
2023/05/26 05:35:18;;;;;;;44.55;41.92;;;;;;;16.40;43.49;102910.09;5011818;28;20038;-74
2023/05/26 05:37:44;;;;;;;44.13;41.80;;;;;;;16.39;43.41;102910.31;5011994;28;20157;-75
2023/05/26 05:40:10;;;;;;;47.33;43.38;;;;;;;16.39;43.30;102899.41;5010419;28;20021;-75
2023/05/26 05:42:35;;;;;;;45.50;43.13;;;;;;;16.37;43.43;102915.16;5029404;28;20071;-76
2023/05/26 05:45:01;;;;;;;45.72;42.85;;;;;;;16.36;43.60;102908.03;5017763;28;20455;-75
2023/05/26 05:47:26;;;;;;;44.50;41.53;;;;;;;16.35;43.55;102906.34;5026837;28;20033;-74
2023/05/26 05:49:52;;;;;;;45.70;43.00;;;;;;;16.32;43.43;102910.38;5010597;28;20029;-75
2023/05/26 05:52:17;;;;;;;43.47;40.40;;;;;;;16.32;43.67;102913.09;5034114;28;20438;-75
2023/05/26 05:54:42;;;;;;;46.17;43.45;;;;;;;16.32;43.39;102920.47;4995896;28;20451;-75
2023/05/26 05:57:08;;;;;;;45.65;42.63;;;;;;;16.30;43.67;102917.94;4995745;28;20521;-76
2023/05/26 05:59:33;;;;;;;46.13;43.25;;;;;;;16.29;43.63;102921.75;4992896;28;20061;-74
2023/05/26 06:01:59;;;;;;;45.53;42.53;;;;;;;16.28;43.81;102922.81;5009376;28;20117;-74
2023/05/26 06:04:24;;;;;;;46.15;41.95;;;;;;;16.29;43.66;102927.22;5006461;28;20038;-74
2023/05/26 06:06:50;;;;;;;45.88;42.35;;;;;;;16.30;43.59;102926.13;5001188;28;20049;-76
2023/05/26 06:09:15;;;;;;;44.42;41.20;;;;;;;16.31;43.82;102933.28;5005804;28;20373;-75
2023/05/26 06:11:43;;;;;;;45.47;42.20;;;;;;;16.30;43.66;102934.31;5011842;28;20034;-76
2023/05/26 06:14:08;;;;;;;44.50;41.25;;;;;;;16.32;43.95;102932.19;5012134;28;20038;-76
2023/05/26 06:16:34;;;;;;;44.42;41.50;;;;;;;16.33;43.77;102939.34;5012440;28;20036;-76
2023/05/26 06:18:59;;;;;;;42.15;40.10;;;;;;;16.33;43.80;102942.06;4999301;28;20073;-76
2023/05/26 06:21:25;;;;;;;42.15;39.72;;;;;;;16.32;43.83;102939.56;4996884;28;20046;-75
2023/05/26 06:23:52;;;;;;;44.35;41.30;;;;;;;16.31;43.84;102940.63;5007488;28;20030;-76
2023/05/26 06:26:18;;;;;;;42.40;40.08;;;;;;;16.32;43.69;102934.09;5023901;28;20116;-76
2023/05/26 06:28:43;;;;;;;44.97;41.22;;;;;;;16.31;43.79;102944.19;5007547;28;20117;-75
2023/05/26 06:31:08;;;;;;;44.67;42.08;;;;;;;16.32;43.89;102939.56;4996233;28;20477;-75
2023/05/26 06:33:34;;;;;;;43.80;41.70;;;;;;;16.32;44.24;102931.38;4994911;28;20033;-74
2023/05/26 06:35:59;;;;;;;44.80;41.40;;;;;;;16.33;44.23;102938.47;4999055;28;20050;-77
2023/05/26 06:38:25;;;;;;;41.55;39.22;;;;;;;16.34;44.42;102934.72;4992968;28;20035;-76
2023/05/26 06:40:50;;;;;;;45.30;41.65;;;;;;;16.36;43.92;102938.88;5007154;28;20548;-78
2023/05/26 06:43:16;;;;;;;43.85;40.92;;;;;;;16.38;43.90;102935.94;5020257;28;20114;-77
2023/05/26 06:45:41;;;;;;;45.15;41.95;;;;;;;16.38;44.09;102935.94;4993122;28;20034;-76
2023/05/26 06:48:06;;;;;;;44.70;40.53;;;;;;;16.39;44.14;102935.69;5011915;28;20125;-76
2023/05/26 06:50:32;;;;;;;43.13;40.70;;;;;;;16.40;44.45;102945.56;4977269;28;20039;-75
2023/05/26 06:52:57;;;;;;;45.75;42.40;;;;;;;16.40;44.30;102940.09;5002453;28;20401;-76
2023/05/26 06:55:22;;;;;;;43.42;40.63;;;;;;;16.40;44.07;102944.69;4959394;28;20026;-76
2023/05/26 06:57:48;;;;;;;45.33;41.88;;;;;;;16.40;44.13;102937.38;5011558;28;20381;-76
2023/05/26 07:00:14;;;;;;;44.35;41.00;;;;;;;16.43;44.54;102941.53;4997120;28;20477;-76
2023/05/26 07:02:40;;;;;;;42.97;40.30;;;;;;;16.46;44.67;102940.25;4994329;28;20466;-76
2023/05/26 07:05:08;;;;;;;44.60;41.65;;;;;;;16.48;44.48;102938.09;5026599;28;20037;-76
2023/05/26 07:07:33;;;;;;;44.85;41.80;;;;;;;16.51;44.27;102943.13;5024853;28;20030;-76
2023/05/26 07:09:59;;;;;;;48.13;43.85;;;;;;;16.52;44.24;102942.88;5001341;28;20026;-80
2023/05/26 07:12:24;;;;;;;43.65;41.05;;;;;;;16.54;44.88;102945.38;4988249;28;20396;-73
2023/05/26 07:14:50;;;;;;;45.03;42.15;;;;;;;16.56;44.74;102949.53;5009864;28;20534;-77
2023/05/26 07:17:15;;;;;;;45.70;42.40;;;;;;;16.58;44.79;102952.03;5013271;28;20026;-76
2023/05/26 07:19:40;;;;;;;44.55;41.33;;;;;;;16.60;45.02;102947.19;5029882;28;20199;-79
2023/05/26 07:22:06;;;;;;;42.63;39.72;;;;;;;16.63;45.00;102949.44;5016887;28;20036;-79
2023/05/26 07:24:31;;;;;;;44.38;41.72;;;;;;;16.66;45.09;102938.91;4996277;28;20027;-78
2023/05/26 07:26:57;;;;;;;46.97;43.75;;;;;;;16.70;44.65;102947.47;4999125;28;20422;-77
2023/05/26 07:29:22;;;;;;;42.72;40.25;;;;;;;16.73;44.77;102949.75;5021893;28;20037;-78
2023/05/26 07:31:48;;;;;;;46.28;42.47;;;;;;;16.77;44.77;102953.69;4989127;28;20133;-78
2023/05/26 07:34:13;;;;;;;49.15;44.65;;;;;;;16.82;44.69;102955.75;5010173;28;20413;-77
2023/05/26 07:36:38;;;;;;;47.05;44.13;;;;;;;16.85;44.65;102953.38;4994093;28;20038;-77
2023/05/26 07:39:04;;;;;;;45.80;42.88;;;;;;;16.89;45.09;102950.22;5027068;28;20045;-76
2023/05/26 07:41:30;;;;;;;45.58;42.25;;;;;;;16.93;45.17;102951.41;5028413;28;20088;-77
2023/05/26 07:43:55;;;;;;;46.70;43.90;;;;;;;16.97;45.38;102958.91;5009749;28;20281;-77
2023/05/26 07:46:21;;;;;;;46.42;43.70;;;;;;;17.01;45.23;102956.53;4996395;28;20044;-77
2023/05/26 07:48:47;;;;;;;45.95;42.97;;;;;;;17.05;45.36;102947.63;5017585;28;20385;-82
2023/05/26 07:51:13;;;;;;;47.45;44.33;;;;;;;17.12;45.39;102950.28;4997188;28;20022;-76
2023/05/26 07:53:39;;;;;;;49.70;46.50;;;;;;;17.17;45.14;102947.69;5008374;28;20036;-76
2023/05/26 07:56:04;;;;;;;49.70;45.47;;;;;;;17.22;45.19;102955.19;4991927;28;20427;-76
2023/05/26 07:58:32;;;;;;;51.85;46.95;;;;;;;17.28;45.09;102956.97;5027973;28;20033;-76
2023/05/26 08:00:58;;;;;;;49.80;47.08;;;;;;;17.34;44.93;102953.31;5028874;28;20037;-76
2023/05/26 08:03:23;;;;;;;48.30;45.55;;;;;;;17.39;45.54;102938.97;4995972;28;20481;-74
2023/05/26 08:05:49;;;;;;;48.35;44.90;;;;;;;17.44;45.23;102950.84;5009111;28;20038;-78
2023/05/26 08:08:14;;;;;;;47.60;44.72;;;;;;;17.49;45.48;102944.69;4995081;28;20042;-77
2023/05/26 08:10:40;;;;;;;47.13;44.83;;;;;;;17.52;45.98;102945.03;5012022;28;20120;-76
2023/05/26 08:13:05;;;;;;;50.67;47.80;;;;;;;17.59;45.79;102953.13;5009436;28;20034;-77
2023/05/26 08:15:31;;;;;;;49.80;46.72;;;;;;;17.65;45.76;102945.88;5012912;28;20057;-76
2023/05/26 08:17:56;;;;;;;50.40;47.17;;;;;;;17.71;45.62;102943.03;5007722;28;20033;-78
2023/05/26 08:20:22;;;;;;;49.60;46.88;;;;;;;17.79;46.10;102943.72;5009810;28;20042;-77
2023/05/26 08:22:47;;;;;;;52.25;48.53;;;;;;;17.86;45.87;102944.47;5013727;28;20026;-78
2023/05/26 08:25:13;;;;;;;50.20;47.47;;;;;;;17.92;45.70;102940.81;5012265;28;20468;-77
2023/05/26 08:27:39;;;;;;;50.80;47.72;;;;;;;17.98;45.68;102950.78;5009249;28;20453;-77
2023/05/26 08:30:06;;;;;;;55.95;51.50;;;;;;;18.05;45.54;102939.72;5001918;28;20038;-79
2023/05/26 08:32:31;;;;;;;53.05;49.30;;;;;;;18.12;45.73;102937.69;5001747;28;20030;-76
2023/05/26 08:34:57;;;;;;;54.35;50.80;;;;;;;18.18;45.57;102931.25;5005297;28;20042;-77
2023/05/26 08:37:22;;;;;;;56.13;51.97;;;;;;;18.27;45.58;102932.56;5009985;28;20481;-77
2023/05/26 08:39:48;;;;;;;56.63;53.03;;;;;;;18.36;45.33;102933.00;4996740;28;20472;-77
2023/05/26 08:42:20;;;;;;;54.03;50.83;;;;;;;18.44;44.57;102931.78;4999804;28;20098;-79
2023/05/26 08:44:46;;;;;;;53.58;50.75;;;;;;;18.52;45.04;102934.13;5012549;28;20029;-77
2023/05/26 08:47:12;;;;;;;54.47;50.92;;;;;;;18.58;45.08;102936.75;5004787;28;20042;-78
2023/05/26 08:49:49;;;;;;;57.50;53.35;;;;;;;18.66;44.70;102937.44;5010360;28;20038;-76
2023/05/26 08:52:16;;;;;;;59.83;55.53;;;;;;;18.74;44.67;102931.56;5016630;28;20100;-78
2023/05/26 08:54:43;;;;;;;58.17;53.78;;;;;;;18.84;44.23;102939.16;5004029;28;20446;-77
2023/05/26 08:57:10;;;;;;;59.40;55.67;;;;;;;18.90;44.28;102938.19;5041463;28;20034;-79
2023/05/26 08:59:36;;;;;;;59.25;55.45;;;;;;;18.98;44.37;102941.38;5011474;28;20079;-80
2023/05/26 09:02:02;;;;;;;57.35;53.72;;;;;;;19.07;44.53;102930.00;4992168;28;20034;-77
2023/05/26 09:04:29;;;;;;;56.03;52.63;;;;;;;19.13;44.87;102937.25;5007019;28;20030;-79
2023/05/26 09:06:56;;;;;;;58.28;54.80;;;;;;;19.20;44.04;102935.16;5003805;28;20041;-77
2023/05/26 09:09:21;;;;;;;56.80;53.40;;;;;;;19.28;43.31;102926.56;5009969;28;20044;-76
2023/05/26 09:11:47;;;;;;;58.30;54.78;;;;;;;19.38;44.08;102939.59;5011132;28;20033;-77
2023/05/26 09:14:14;;;;;;;59.63;56.17;;;;;;;19.46;44.10;102933.69;5003129;28;20030;-78
2023/05/26 09:16:40;;;;;;;57.83;54.25;;;;;;;19.53;44.11;102923.41;5010746;28;20025;-78
2023/05/26 09:19:06;;;;;;;60.05;56.28;;;;;;;19.63;43.82;102930.94;4996931;28;20030;-76
2023/05/26 09:21:32;;;;;;;63.90;59.58;;;;;;;19.72;43.78;102931.38;5007468;28;20046;-76
2023/05/26 09:23:59;;;;;;;59.92;56.60;;;;;;;19.81;43.96;102944.44;5012986;28;20025;-77
2023/05/26 09:26:30;;;;;;;60.53;57.17;;;;;;;19.91;42.61;102942.91;5010699;28;20540;-75
2023/05/26 09:28:55;;;;;;;62.00;57.90;;;;;;;19.98;42.96;102930.69;4999322;28;20036;-78
2023/05/26 09:31:21;;;;;;;62.05;58.63;;;;;;;20.07;42.42;102948.34;5003289;28;20056;-75
2023/05/26 09:33:47;;;;;;;65.13;60.33;;;;;;;20.15;43.52;102944.34;5024758;28;20042;-76
2023/05/26 09:36:14;;;;;;;63.42;60.08;;;;;;;20.22;44.28;102939.50;5012639;28;20037;-75
2023/05/26 09:38:42;;;;;;;64.13;59.58;;;;;;;20.31;44.04;102940.72;5013194;28;20026;-77
2023/05/26 09:41:07;;;;;;;65.35;61.25;;;;;;;20.40;43.86;102943.84;5001307;28;20034;-75
2023/05/26 09:43:33;;;;;;;65.15;61.53;;;;;;;20.48;44.20;102939.81;4995637;28;20490;-75
2023/05/26 09:45:59;;;;;;;67.15;63.00;;;;;;;20.58;43.79;102941.88;5010342;28;20033;-76
2023/05/26 09:48:25;;;;;;;65.50;61.78;;;;;;;20.68;43.37;102939.25;5005046;28;20035;-76
2023/05/26 09:50:51;;;;;;;66.82;63.33;;;;;;;20.78;42.68;102941.28;4994322;28;20057;-77
2023/05/26 09:53:16;;;;;;;67.28;63.38;;;;;;;20.86;43.10;102943.56;5001497;28;20034;-76
2023/05/26 09:55:43;;;;;;;71.05;66.97;;;;;;;20.96;42.75;102940.91;5010792;28;20037;-77
2023/05/26 09:58:11;;;;;;;70.10;66.25;;;;;;;21.05;42.70;102933.06;5021104;28;20132;-78
2023/05/26 10:00:40;;;;;;;70.97;67.18;;;;;;;21.15;41.63;102927.66;5010402;28;20489;-78
2023/05/26 10:03:09;;;;;;;69.30;65.80;;;;;;;21.24;41.71;102930.75;5010383;28;20029;-77
2023/05/26 10:05:38;;;;;;;68.75;64.38;;;;;;;21.33;41.21;102919.00;4991213;28;20048;-74
2023/05/26 10:08:06;;;;;;;71.38;66.80;;;;;;;21.43;41.82;102921.03;4993505;28;20022;-77
2023/05/26 10:10:33;;;;;;;73.55;69.07;;;;;;;21.53;41.67;102923.03;5000747;28;20045;-78
2023/05/26 10:12:59;;;;;;;70.72;66.90;;;;;;;21.61;40.01;102919.78;5006742;28;20049;-79
2023/05/26 10:15:25;;;;;;;71.43;67.72;;;;;;;21.68;40.03;102920.41;5010039;28;20251;-80
2023/05/26 10:17:51;;;;;;;72.95;68.80;;;;;;;21.77;39.28;102918.81;5017641;28;20374;-79
2023/05/26 10:20:17;;;;;;;72.97;69.20;;;;;;;21.87;38.31;102919.94;5022448;28;20051;-79
2023/05/26 10:23:00;;;;;;;73.57;69.68;;;;;;;21.95;39.37;102913.97;5022423;28;20033;-79
2023/05/26 10:25:38;;;;;;;73.00;68.68;;;;;;;22.03;38.91;102919.78;5016353;28;20043;-79
2023/05/26 10:28:32;;;;;;;74.32;70.45;;;;;;;22.13;39.43;102913.50;5011102;28;20034;-75
2023/05/26 10:31:00;;;;;;;72.07;68.57;;;;;;;22.21;40.03;102914.94;5011334;28;20473;-80
2023/05/26 10:33:41;;;;;;;73.73;70.00;;;;;;;22.30;39.59;102916.09;5016254;28;20491;-81
2023/05/26 10:36:14;;;;;;;79.47;74.60;;;;;;;22.39;39.24;102914.44;5019423;28;20036;-81
2023/05/26 10:38:47;;;;;;;76.07;72.18;;;;;;;22.49;39.63;102910.91;5016765;28;20049;-81
2023/05/26 10:41:35;;;;;;;79.85;75.60;;;;;;;22.58;40.15;102911.19;5015061;28;20036;-82
2023/05/26 10:44:02;;;;;;;77.00;73.32;;;;;;;22.66;40.18;102910.69;5017496;28;20035;-82
2023/05/26 10:46:38;;;;;;;77.25;73.35;;;;;;;22.74;39.88;102909.31;5002481;28;20030;-82
2023/05/26 10:49:03;;;;;;;76.65;73.05;;;;;;;22.81;40.83;102902.44;4999042;28;20036;-90
2023/05/26 10:51:31;;;;;;;80.53;76.25;;;;;;;22.88;40.52;102907.66;5006468;28;20037;-85
2023/05/26 10:53:58;;;;;;;79.25;75.60;;;;;;;22.97;40.27;102905.22;4998902;28;20026;-82
2023/05/26 10:56:42;;;;;;;81.30;76.57;;;;;;;23.04;40.67;102903.88;5006235;28;20027;-82
2023/05/26 10:59:21;;;;;;;79.15;75.13;;;;;;;23.13;40.54;102906.06;5006553;28;20033;-73
2023/05/26 11:01:52;;;;;;;82.05;77.57;;;;;;;23.21;39.84;102895.34;5034227;28;20021;-83
2023/05/26 11:04:17;;;;;;;84.28;79.95;;;;;;;23.30;39.95;102909.38;5019798;28;20112;-82
2023/05/26 11:06:58;;;;;;;90.65;84.35;;;;;;;23.39;40.32;102904.16;5016219;28;20121;-87